Time;durP1;ratioP1;P1;durP2;ratioP2;P2;SDS_P1;SDS_P2;PMS_P1;PMS_P2;Temp;Humidity;BMP_temperature;BMP_pressure;BME280_temperature;BME280_humidity;BME280_pressure;Samples;Min_cycle;Max_cycle;Signal;HPM_P1;HPM_P2
2022/03/07 00:00:56;;;;;;;28.63;15.27;;;0.70;69.90;;;;;;4997023;28;20229;-69
2022/03/07 00:03:24;;;;;;;30.17;15.88;;;0.70;70.10;;;;;;5007147;28;20056;-69
2022/03/07 00:05:50;;;;;;;26.75;14.45;;;0.70;70.20;;;;;;4983635;28;20026;-69
2022/03/07 00:08:16;;;;;;;30.67;14.90;;;0.70;70.20;;;;;;5012400;28;20036;-69
2022/03/07 00:10:41;;;;;;;27.77;14.37;;;0.70;70.50;;;;;;4985925;28;20030;-68
2022/03/07 00:13:07;;;;;;;31.30;16.10;;;0.60;70.50;;;;;;5004345;28;20033;-68
2022/03/07 00:15:33;;;;;;;27.57;15.10;;;0.60;70.90;;;;;;4982385;28;20041;-68
2022/03/07 00:17:59;;;;;;;28.80;14.60;;;0.60;71.10;;;;;;5003093;28;21497;-68
2022/03/07 00:20:24;;;;;;;29.80;16.20;;;0.50;71.30;;;;;;5013199;28;20037;-68
2022/03/07 00:22:50;;;;;;;26.07;14.77;;;0.60;71.40;;;;;;4983274;28;20026;-68
2022/03/07 00:25:17;;;;;;;30.77;15.10;;;0.50;71.50;;;;;;5008988;28;20033;-68
2022/03/07 00:27:43;;;;;;;;;;;0.50;72.00;;;;;;5003263;28;20025;-69
2022/03/07 00:30:09;;;;;;;28.15;15.32;;;0.50;72.10;;;;;;5007576;28;19913;-69
2022/03/07 00:32:35;;;;;;;30.27;15.15;;;0.50;72.40;;;;;;5009058;28;20040;-69
2022/03/07 00:35:00;;;;;;;27.90;15.00;;;0.50;72.60;;;;;;5001158;28;20038;-69
2022/03/07 00:37:26;;;;;;;31.10;15.37;;;0.40;72.70;;;;;;5005231;28;20033;-68
2022/03/07 00:39:52;;;;;;;29.45;15.10;;;0.40;72.80;;;;;;4986236;28;20026;-68
2022/03/07 00:42:19;;;;;;;29.47;14.50;;;0.40;72.90;;;;;;4986752;28;20036;-69
2022/03/07 00:44:45;;;;;;;31.75;15.07;;;0.40;73.30;;;;;;4998594;28;20025;-69
2022/03/07 00:47:10;;;;;;;25.17;14.27;;;0.40;73.40;;;;;;5001509;28;20038;-68
2022/03/07 00:49:36;;;;;;;30.30;15.23;;;0.40;73.60;;;;;;5008367;28;20496;-69
2022/03/07 00:52:02;;;;;;;30.67;15.97;;;0.30;73.90;;;;;;4987718;28;20037;-69
2022/03/07 00:54:27;;;;;;;29.30;14.63;;;0.30;74.00;;;;;;5009855;28;20049;-68
2022/03/07 00:56:53;;;;;;;30.73;15.23;;;0.30;74.80;;;;;;5003100;28;20021;-69
2022/03/07 00:59:19;;;;;;;24.57;15.10;;;0.30;74.50;;;;;;5003671;28;20104;-69
2022/03/07 01:01:44;;;;;;;30.70;15.23;;;0.20;74.80;;;;;;5006423;28;20406;-69
2022/03/07 01:04:10;;;;;;;30.97;15.30;;;0.20;74.90;;;;;;4991617;28;20059;-69
2022/03/07 01:06:36;;;;;;;29.43;15.37;;;0.20;75.00;;;;;;5007246;28;20030;-70
2022/03/07 01:09:02;;;;;;;30.13;15.50;;;0.20;75.20;;;;;;5011174;28;20148;-69
2022/03/07 01:11:27;;;;;;;29.17;15.73;;;0.20;75.30;;;;;;5008174;28;20124;-69
2022/03/07 01:13:53;;;;;;;32.53;16.30;;;0.20;75.70;;;;;;5005136;28;20445;-69
2022/03/07 01:16:19;;;;;;;30.27;15.57;;;0.20;75.80;;;;;;5002333;28;20406;-69
2022/03/07 01:18:45;;;;;;;33.53;15.77;;;0.20;76.00;;;;;;5006166;28;20028;-69
2022/03/07 01:21:12;;;;;;;31.00;16.13;;;0.20;76.20;;;;;;5006278;28;20037;-71
2022/03/07 01:23:42;;;;;;;33.47;16.05;;;0.20;76.40;;;;;;5001189;28;20216;-70
2022/03/07 01:26:08;;;;;;;32.55;16.20;;;1.10;77.10;;;;;;4989189;28;20037;-69
2022/03/07 01:28:34;;;;;;;31.20;16.67;;;0.20;76.40;;;;;;4999754;28;20029;-69
2022/03/07 01:30:59;;;;;;;32.50;16.87;;;0.20;76.50;;;;;;4986181;28;20024;-69
2022/03/07 01:33:26;;;;;;;34.47;17.00;;;0.30;76.40;;;;;;5003762;28;20018;-68
2022/03/07 01:35:51;;;;;;;32.17;15.80;;;0.30;76.70;;;;;;5003733;28;20071;-69
2022/03/07 01:38:17;;;;;;;32.77;17.07;;;0.30;75.90;;;;;;5003823;28;20100;-69
2022/03/07 01:40:44;;;;;;;32.70;16.80;;;0.30;76.20;;;;;;5005454;28;20042;-69
2022/03/07 01:43:10;;;;;;;;;;;0.30;75.40;;;;;;5004099;28;20026;-69
2022/03/07 01:45:40;;;;;;;32.47;15.15;;;0.30;75.20;;;;;;5010397;28;19995;-69
2022/03/07 01:48:06;;;;;;;27.25;14.98;;;0.30;75.20;;;;;;5009630;28;20057;-69
2022/03/07 01:50:32;;;;;;;34.03;15.10;;;0.30;74.90;;;;;;5004510;28;20064;-69
2022/03/07 01:52:58;;;;;;;31.30;15.57;;;0.30;74.70;;;;;;5002161;28;20018;-69
2022/03/07 01:55:24;;;;;;;28.33;14.85;;;0.30;74.80;;;;;;5010726;28;20116;-69
2022/03/07 01:57:51;;;;;;;27.20;14.13;;;0.30;74.40;;;;;;5002469;28;20022;-69
2022/03/07 02:00:23;;;;;;;31.92;16.17;;;0.30;74.30;;;;;;5003227;28;20018;-68
2022/03/07 02:02:49;;;;;;;29.70;13.98;;;0.50;73.80;;;;;;4985012;28;20038;-69
2022/03/07 02:05:15;;;;;;;27.00;14.27;;;0.50;73.20;;;;;;5002447;28;20064;-69
2022/03/07 02:07:41;;;;;;;29.80;15.30;;;0.50;73.70;;;;;;4985376;28;20253;-69
2022/03/07 02:10:09;;;;;;;27.55;13.50;;;0.60;73.10;;;;;;5003004;28;20030;-69
2022/03/07 02:12:35;;;;;;;27.27;15.18;;;0.60;72.80;;;;;;4984284;28;20033;-69
2022/03/07 02:15:01;;;;;;;28.63;15.93;;;0.70;72.30;;;;;;4979681;28;20026;-69
2022/03/07 02:17:27;;;;;;;23.97;14.10;;;0.70;72.10;;;;;;5003340;28;20108;-69
2022/03/07 02:19:52;;;;;;;29.97;15.00;;;0.70;71.50;;;;;;4999617;28;20017;-69
2022/03/07 02:22:18;;;;;;;28.30;14.47;;;0.70;71.20;;;;;;5000358;28;20026;-69
2022/03/07 02:24:44;;;;;;;23.60;13.37;;;0.70;71.00;;;;;;4984281;28;20125;-69
2022/03/07 02:27:12;;;;;;;28.10;13.97;;;0.70;70.60;;;;;;5003109;28;20033;-69
2022/03/07 02:29:38;;;;;;;28.20;14.45;;;0.80;70.40;;;;;;4981261;28;20022;-70
2022/03/07 02:32:05;;;;;;;30.13;14.13;;;0.80;70.40;;;;;;5001841;28;20098;-71
2022/03/07 02:34:31;;;;;;;28.98;15.73;;;0.80;70.50;;;;;;5002009;28;20032;-69
2022/03/07 02:36:57;;;;;;;25.83;14.48;;;0.80;70.70;;;;;;4992217;28;20114;-70
2022/03/07 02:39:23;;;;;;;29.87;14.50;;;0.80;70.70;;;;;;4983400;28;20120;-69
2022/03/07 02:41:49;;;;;;;31.02;14.82;;;0.80;70.80;;;;;;4997975;28;20410;-70
2022/03/07 02:44:15;;;;;;;26.37;14.97;;;0.80;70.80;;;;;;5005670;28;20084;-69
2022/03/07 02:46:41;;;;;;;26.40;14.63;;;0.80;70.90;;;;;;5005760;28;20032;-69
2022/03/07 02:49:07;;;;;;;30.00;15.10;;;0.80;70.70;;;;;;5003011;28;20855;-69
2022/03/07 02:51:34;;;;;;;28.05;14.25;;;0.90;70.80;;;;;;5007949;28;20071;-69
2022/03/07 02:53:59;;;;;;;26.20;13.90;;;0.90;70.70;;;;;;5000255;28;20103;-69
2022/03/07 02:56:25;;;;;;;28.93;13.93;;;0.80;70.50;;;;;;5006456;28;20025;-69
2022/03/07 02:58:51;;;;;;;32.50;15.20;;;0.80;70.60;;;;;;4997152;28;20064;-69
2022/03/07 03:01:16;;;;;;;25.00;14.00;;;0.90;70.50;;;;;;4988898;28;20030;-68
2022/03/07 03:03:42;;;;;;;27.87;14.70;;;0.80;70.70;;;;;;5008318;28;20371;-69
2022/03/07 03:06:09;;;;;;;30.20;14.10;;;0.80;70.50;;;;;;5003997;28;20437;-69
2022/03/07 03:08:35;;;;;;;28.52;15.07;;;0.90;70.80;;;;;;5007391;28;20016;-69
2022/03/07 03:11:01;;;;;;;28.53;15.17;;;0.90;70.60;;;;;;5004066;28;20411;-69
2022/03/07 03:13:28;;;;;;;27.23;15.35;;;0.90;70.70;;;;;;4986678;28;20021;-69
2022/03/07 03:15:54;;;;;;;;;;;0.90;71.10;;;;;;5003144;28;20029;-69
2022/03/07 03:18:21;;;;;;;31.88;15.25;;;0.90;71.10;;;;;;5012627;28;19905;-71
2022/03/07 03:20:48;;;;;;;34.10;16.20;;;0.90;71.10;;;;;;5005710;28;20083;-69
2022/03/07 03:23:14;;;;;;;32.08;16.17;;;0.90;71.20;;;;;;4993007;28;20030;-68
2022/03/07 03:25:41;;;;;;;27.73;15.32;;;0.90;71.40;;;;;;4991058;28;20712;-69
2022/03/07 03:28:07;;;;;;;35.25;17.48;;;0.90;71.70;;;;;;5012772;28;20061;-69
2022/03/07 03:30:33;;;;;;;33.77;15.63;;;0.90;71.70;;;;;;5001066;28;20460;-69
2022/03/07 03:32:59;;;;;;;35.90;16.60;;;0.90;71.70;;;;;;4998934;28;20085;-69
2022/03/07 03:35:26;;;;;;;29.00;15.77;;;1.00;72.20;;;;;;5005129;28;20065;-68
2022/03/07 03:37:52;;;;;;;;;;;0.90;72.30;;;;;;4999325;28;20115;-68
2022/03/07 03:40:18;;;;;;;34.10;17.45;;;0.90;72.60;;;;;;4992731;28;19920;-68
2022/03/07 03:42:44;;;;;;;32.20;16.88;;;0.90;73.20;;;;;;5000255;28;20023;-68
2022/03/07 03:45:11;;;;;;;33.20;16.00;;;0.80;74.40;;;;;;5011634;28;20030;-69
2022/03/07 03:47:38;;;;;;;30.40;16.35;;;0.80;74.90;;;;;;5006069;28;20030;-68
2022/03/07 03:50:06;;;;;;;32.05;16.30;;;0.80;75.20;;;;;;4992202;28;20045;-68
2022/03/07 03:52:33;;;;;;;31.33;16.08;;;0.80;75.50;;;;;;5004737;28;21409;-68
2022/03/07 03:54:58;;;;;;;34.15;16.77;;;0.90;76.10;;;;;;5000274;28;20029;-68
2022/03/07 03:57:24;;;;;;;38.37;17.90;;;0.90;76.40;;;;;;5008128;28;20107;-68
2022/03/07 03:59:50;;;;;;;32.23;17.17;;;0.90;76.40;;;;;;4996769;28;20097;-72
2022/03/07 04:02:16;;;;;;;34.73;16.83;;;0.90;77.10;;;;;;4996310;28;20021;-69
2022/03/07 04:04:42;;;;;;;35.93;17.50;;;0.80;78.20;;;;;;4998790;28;20036;-69
2022/03/07 04:07:08;;;;;;;36.97;17.57;;;0.90;77.90;;;;;;5008015;28;20041;-69
2022/03/07 04:09:34;;;;;;;38.27;17.97;;;0.80;78.50;;;;;;5006543;28;20269;-68
2022/03/07 04:11:59;;;;;;;33.53;15.93;;;0.80;78.50;;;;;;5001895;28;20028;-68
2022/03/07 04:14:26;;;;;;;33.57;17.13;;;0.80;78.60;;;;;;5004760;28;20435;-68
2022/03/07 04:16:52;;;;;;;;;;;0.80;78.70;;;;;;5010468;28;20399;-68
2022/03/07 04:19:18;;;;;;;32.70;17.00;;;0.80;78.60;;;;;;5004188;28;19902;-68
2022/03/07 04:21:44;;;;;;;39.17;19.03;;;0.80;78.40;;;;;;5004713;28;20017;-69
2022/03/07 04:24:12;;;;;;;34.83;17.88;;;0.80;78.40;;;;;;5005781;28;20026;-68
2022/03/07 04:26:42;;;;;;;31.02;16.95;;;0.70;78.50;;;;;;4987364;28;20045;-68
2022/03/07 04:29:08;;;;;;;38.97;18.75;;;0.70;79.10;;;;;;5008486;28;20028;-68
2022/03/07 04:31:38;;;;;;;34.78;17.90;;;0.70;79.50;;;;;;5007239;28;20077;-68
2022/03/07 04:34:06;;;;;;;33.50;17.75;;;0.70;79.90;;;;;;4989107;28;21405;-68
2022/03/07 04:36:34;;;;;;;39.85;18.92;;;0.70;80.70;;;;;;5006587;28;20029;-68
2022/03/07 04:39:00;;;;;;;36.42;18.67;;;0.60;80.10;;;;;;5009201;28;21166;-69
2022/03/07 04:41:27;;;;;;;34.83;17.50;;;0.60;80.00;;;;;;5009220;28;20443;-68
2022/03/07 04:43:53;;;;;;;33.70;17.65;;;0.60;80.20;;;;;;5000175;28;20034;-69
2022/03/07 04:46:18;;;;;;;33.70;17.23;;;0.70;80.30;;;;;;5002860;28;20021;-68
2022/03/07 04:48:44;;;;;;;36.53;18.07;;;0.70;80.30;;;;;;5007287;28;20029;-69
2022/03/07 04:51:11;;;;;;;36.47;18.57;;;0.70;79.80;;;;;;5005347;28;20030;-71
2022/03/07 04:53:36;;;;;;;34.75;17.35;;;0.60;79.90;;;;;;5011369;28;20523;-69
2022/03/07 04:56:02;;;;;;;36.10;18.13;;;0.60;80.10;;;;;;5004184;28;20120;-69
2022/03/07 04:58:28;;;;;;;38.10;17.23;;;0.60;80.20;;;;;;5006088;28;20025;-69
2022/03/07 05:00:54;;;;;;;33.67;19.03;;;0.60;80.20;;;;;;4998228;28;20033;-69
2022/03/07 05:03:21;;;;;;;32.90;16.63;;;0.60;80.30;;;;;;5001902;28;20022;-68
2022/03/07 05:05:48;;;;;;;40.55;17.73;;;0.60;80.20;;;;;;4996381;28;20026;-69
2022/03/07 05:08:14;;;;;;;36.42;17.67;;;0.50;80.50;;;;;;5010639;28;20025;-69
2022/03/07 05:10:39;;;;;;;33.90;17.10;;;0.50;79.80;;;;;;5010747;28;20017;-68
2022/03/07 05:13:05;;;;;;;33.40;15.97;;;0.50;79.80;;;;;;5002699;28;20021;-69
2022/03/07 05:15:31;;;;;;;29.93;15.40;;;0.50;78.50;;;;;;4993543;28;20490;-69
2022/03/07 05:17:58;;;;;;;30.53;15.00;;;0.50;76.90;;;;;;4999805;28;20018;-69
2022/03/07 05:20:25;;;;;;;29.42;15.25;;;0.50;76.40;;;;;;5003517;28;20044;-69
2022/03/07 05:22:51;;;;;;;29.63;15.20;;;0.50;75.50;;;;;;5002851;28;20026;-69
2022/03/07 05:25:18;;;;;;;33.05;17.00;;;0.50;75.50;;;;;;5006967;28;20026;-69
2022/03/07 05:27:45;;;;;;;28.92;14.30;;;0.60;74.80;;;;;;5004269;28;20103;-68
2022/03/07 05:30:15;;;;;;;33.30;15.45;;;0.50;73.70;;;;;;5008732;28;20099;-69
2022/03/07 05:32:45;;;;;;;30.35;15.23;;;0.50;73.80;;;;;;5006330;28;20746;-69
2022/03/07 05:35:11;;;;;;;29.60;14.05;;;0.50;74.20;;;;;;4986904;28;20037;-68
2022/03/07 05:37:37;;;;;;;29.13;14.90;;;0.40;74.10;;;;;;5004449;28;20034;-68
2022/03/07 05:40:06;;;;;;;30.98;15.82;;;0.40;73.80;;;;;;5002236;28;20109;-69
2022/03/07 05:42:33;;;;;;;29.92;14.05;;;0.40;73.80;;;;;;5002318;28;20033;-69
2022/03/07 05:44:59;;;;;;;29.95;14.82;;;0.40;73.70;;;;;;5005799;28;20484;-68
2022/03/07 05:47:26;;;;;;;31.80;15.13;;;0.40;73.80;;;;;;5004642;28;20079;-68
2022/03/07 05:49:52;;;;;;;30.02;14.43;;;0.30;73.90;;;;;;5000482;28;20620;-69
2022/03/07 05:52:18;;;;;;;26.57;13.93;;;0.40;74.40;;;;;;4988113;28;20121;-69
2022/03/07 05:54:44;;;;;;;26.77;14.77;;;0.40;74.10;;;;;;5006094;28;20041;-69
2022/03/07 05:57:09;;;;;;;26.20;13.60;;;0.40;73.90;;;;;;5002950;28;20057;-69
2022/03/07 05:59:35;;;;;;;26.70;14.50;;;0.30;74.10;;;;;;4986770;28;20057;-69
2022/03/07 06:02:01;;;;;;;27.27;13.93;;;0.40;74.30;;;;;;4995916;28;20112;-69
2022/03/07 06:04:26;;;;;;;27.70;14.90;;;0.40;74.00;;;;;;5004048;28;20527;-68
2022/03/07 06:06:52;;;;;;;25.60;14.00;;;0.40;74.20;;;;;;4996841;28;20041;-69
2022/03/07 06:09:18;;;;;;;28.77;15.03;;;0.50;73.70;;;;;;5007266;28;20037;-68
2022/03/07 06:11:43;;;;;;;24.67;12.60;;;0.50;73.10;;;;;;5006511;28;20026;-68
2022/03/07 06:14:09;;;;;;;25.97;13.47;;;0.50;72.00;;;;;;5001772;28;20562;-69
2022/03/07 06:16:35;;;;;;;27.60;14.23;;;0.50;71.90;;;;;;4999692;28;20029;-69
2022/03/07 06:19:00;;;;;;;24.43;12.40;;;0.50;71.90;;;;;;5003179;28;20036;-69
2022/03/07 06:21:26;;;;;;;25.50;12.57;;;0.50;73.60;;;;;;5004828;28;20029;-69
2022/03/07 06:23:51;;;;;;;22.73;12.90;;;0.50;71.70;;;;;;5002370;28;20036;-68
2022/03/07 06:26:17;;;;;;;22.47;12.73;;;0.50;71.80;;;;;;5003250;28;20067;-68
2022/03/07 06:28:43;;;;;;;25.33;13.83;;;0.50;72.10;;;;;;5004762;28;20025;-68
2022/03/07 06:31:08;;;;;;;23.33;12.93;;;0.60;72.70;;;;;;5007574;28;20133;-68
2022/03/07 06:33:34;;;;;;;24.00;13.50;;;0.90;74.10;;;;;;4995902;28;20021;-69
2022/03/07 06:36:00;;;;;;;25.60;13.17;;;0.90;71.50;;;;;;5001129;28;20030;-68
2022/03/07 06:38:26;;;;;;;26.23;13.90;;;1.00;71.40;;;;;;5004185;28;20036;-68
2022/03/07 06:40:52;;;;;;;21.83;13.20;;;1.00;70.80;;;;;;5007642;28;20040;-69
2022/03/07 06:43:18;;;;;;;23.38;12.82;;;1.00;70.50;;;;;;5008731;28;20446;-68
2022/03/07 06:45:45;;;;;;;25.03;14.20;;;1.00;70.50;;;;;;5011803;28;20029;-69
2022/03/07 06:48:12;;;;;;;23.70;13.20;;;1.00;70.10;;;;;;5010471;28;20088;-68
2022/03/07 06:50:38;;;;;;;25.10;13.50;;;1.00;69.70;;;;;;4990394;28;20060;-68
2022/03/07 06:53:04;;;;;;;20.47;11.80;;;1.10;69.20;;;;;;5006642;28;20061;-68
2022/03/07 06:55:30;;;;;;;23.53;12.77;;;1.10;69.30;;;;;;4981879;28;20036;-68
2022/03/07 06:57:55;;;;;;;22.50;12.30;;;1.10;68.60;;;;;;5010801;28;20029;-68
2022/03/07 07:00:22;;;;;;;21.10;11.63;;;1.00;67.70;;;;;;5005430;28;20101;-69
2022/03/07 07:02:49;;;;;;;23.60;13.18;;;1.10;67.80;;;;;;5004008;28;20022;-68
2022/03/07 07:05:15;;;;;;;22.13;12.82;;;1.20;67.30;;;;;;5008315;28;20442;-68
2022/03/07 07:07:42;;;;;;;22.33;12.27;;;1.20;65.90;;;;;;4999762;28;20029;-68
2022/03/07 07:10:08;;;;;;;;;;;1.20;65.70;;;;;;4997819;28;20059;-69
2022/03/07 07:12:35;;;;;;;18.55;11.15;;;1.10;65.50;;;;;;5002856;28;19990;-68
2022/03/07 07:15:01;;;;;;;18.55;11.25;;;1.20;65.90;;;;;;4999582;28;20040;-68
2022/03/07 07:17:26;;;;;;;18.15;10.48;;;1.20;64.20;;;;;;5005513;28;20349;-68
2022/03/07 07:19:52;;;;;;;15.27;10.87;;;1.20;64.10;;;;;;5005163;28;20034;-69
2022/03/07 07:22:18;;;;;;;18.67;10.33;;;1.20;63.80;;;;;;5005873;28;20029;-68
2022/03/07 07:24:44;;;;;;;17.67;10.17;;;1.10;63.50;;;;;;5003365;28;20096;-68
2022/03/07 07:27:09;;;;;;;19.53;10.70;;;1.10;63.60;;;;;;5000073;28;20022;-68
2022/03/07 07:29:35;;;;;;;16.47;10.43;;;1.10;64.00;;;;;;5008942;28;20616;-68
2022/03/07 07:32:02;;;;;;;19.70;11.50;;;1.20;63.80;;;;;;5004221;28;20526;-69
2022/03/07 07:34:28;;;;;;;16.80;10.00;;;1.20;63.90;;;;;;5007127;28;20523;-68
2022/03/07 07:36:55;;;;;;;19.27;10.77;;;1.10;64.10;;;;;;4984323;28;20018;-68
2022/03/07 07:39:21;;;;;;;19.23;11.15;;;1.10;64.30;;;;;;5007812;28;20057;-68
2022/03/07 07:41:47;;;;;;;16.33;10.23;;;1.20;64.10;;;;;;5007558;28;20466;-68
2022/03/07 07:44:13;;;;;;;19.00;10.17;;;1.20;63.70;;;;;;4984601;28;20282;-68
2022/03/07 07:46:38;;;;;;;15.60;10.05;;;1.30;63.40;;;;;;5009673;28;20022;-69
2022/03/07 07:49:05;;;;;;;19.13;10.67;;;1.40;63.40;;;;;;5002515;28;20033;-68
2022/03/07 07:51:31;;;;;;;20.25;10.57;;;1.50;62.70;;;;;;5008632;28;20506;-68
2022/03/07 07:53:57;;;;;;;20.87;11.57;;;1.60;62.50;;;;;;5003502;28;20049;-69
2022/03/07 07:56:22;;;;;;;18.33;10.97;;;1.80;61.80;;;;;;5013202;28;20021;-69
2022/03/07 07:58:48;;;;;;;16.23;10.63;;;1.90;61.10;;;;;;5001453;28;20044;-69
2022/03/07 08:01:14;;;;;;;20.13;11.23;;;2.10;60.00;;;;;;5009746;28;20022;-69
2022/03/07 08:03:40;;;;;;;17.40;10.43;;;1.90;60.00;;;;;;5008869;28;20079;-68
2022/03/07 08:06:06;;;;;;;19.13;10.53;;;1.90;60.00;;;;;;4986741;28;20082;-68
2022/03/07 08:08:31;;;;;;;16.60;9.97;;;1.90;59.60;;;;;;5006908;28;20042;-68
2022/03/07 08:10:57;;;;;;;18.33;10.40;;;1.70;60.20;;;;;;5001584;28;20115;-69
2022/03/07 08:13:23;;;;;;;18.57;10.57;;;1.70;60.80;;;;;;5012204;28;20022;-69
2022/03/07 08:15:49;;;;;;;19.02;10.23;;;1.70;61.30;;;;;;5006916;28;20018;-68
2022/03/07 08:18:17;;;;;;;18.60;10.10;;;1.70;62.60;;;;;;5004110;28;20371;-68
2022/03/07 08:20:43;;;;;;;17.02;10.10;;;1.60;62.20;;;;;;5006952;28;20026;-69
2022/03/07 08:23:10;;;;;;;19.35;10.80;;;1.50;63.20;;;;;;5005866;28;20022;-68
2022/03/07 08:25:36;;;;;;;17.38;11.05;;;1.40;63.30;;;;;;4982469;28;20045;-68
2022/03/07 08:28:03;;;;;;;16.20;9.97;;;1.30;63.40;;;;;;4998020;28;20509;-69
2022/03/07 08:30:29;;;;;;;;;;;1.30;63.60;;;;;;5010685;28;20095;-69
2022/03/07 08:32:56;;;;;;;15.88;9.80;;;1.40;63.60;;;;;;5006261;28;19911;-69
2022/03/07 08:35:23;;;;;;;21.77;11.30;;;1.40;63.20;;;;;;4992104;28;20036;-68
2022/03/07 08:37:50;;;;;;;15.77;10.07;;;1.50;63.10;;;;;;5005438;28;20022;-68
2022/03/07 08:40:19;;;;;;;18.77;9.77;;;1.50;63.00;;;;;;4997504;28;20052;-69
2022/03/07 08:42:45;;;;;;;16.40;10.18;;;1.50;62.30;;;;;;5004579;28;20021;-69
2022/03/07 08:45:12;;;;;;;16.90;10.27;;;1.50;61.50;;;;;;5000214;28;20042;-68
2022/03/07 08:47:39;;;;;;;16.00;9.15;;;1.40;61.50;;;;;;5006179;28;20067;-69
2022/03/07 08:50:08;;;;;;;17.55;8.73;;;1.50;61.00;;;;;;5001461;28;20029;-69
2022/03/07 08:52:34;;;;;;;15.15;9.45;;;1.50;60.40;;;;;;5006226;28;20125;-69
2022/03/07 08:55:02;;;;;;;14.68;9.18;;;1.60;60.20;;;;;;4985340;28;20038;-69
2022/03/07 08:57:27;;;;;;;15.73;9.23;;;1.60;59.90;;;;;;5002149;28;20093;-69
2022/03/07 08:59:53;;;;;;;15.47;9.83;;;1.70;59.40;;;;;;5002174;28;20589;-68
2022/03/07 09:02:19;;;;;;;14.57;8.73;;;1.70;59.50;;;;;;4999563;28;20375;-69
2022/03/07 09:04:45;;;;;;;16.70;9.43;;;1.60;59.70;;;;;;4986539;28;20025;-68
2022/03/07 09:07:11;;;;;;;14.03;9.13;;;1.60;59.10;;;;;;5001144;28;20041;-69
2022/03/07 09:09:37;;;;;;;16.75;9.48;;;1.70;59.30;;;;;;4999842;28;20045;-69
2022/03/07 09:12:04;;;;;;;13.70;8.13;;;1.70;58.70;;;;;;4995561;28;20053;-68
2022/03/07 09:14:30;;;;;;;20.73;9.80;;;1.80;58.30;;;;;;5006664;28;20133;-69
2022/03/07 09:16:56;;;;;;;14.35;8.70;;;1.90;57.80;;;;;;5002362;28;20040;-68
2022/03/07 09:19:22;;;;;;;13.77;8.40;;;1.90;58.00;;;;;;5006926;28;20046;-68
2022/03/07 09:21:48;;;;;;;12.63;7.73;;;2.00;57.40;;;;;;5004357;28;20268;-69
2022/03/07 09:24:14;;;;;;;12.27;8.10;;;1.90;56.90;;;;;;4999965;28;20823;-68
2022/03/07 09:26:40;;;;;;;12.40;7.90;;;1.90;56.80;;;;;;5000945;28;20072;-68
2022/03/07 09:29:06;;;;;;;15.87;8.47;;;2.00;56.70;;;;;;4981340;28;20030;-68
2022/03/07 09:31:32;;;;;;;13.55;8.25;;;2.00;56.60;;;;;;5006370;28;20060;-68
2022/03/07 09:33:58;;;;;;;12.23;7.53;;;2.00;56.70;;;;;;4987776;28;20117;-68
2022/03/07 09:36:23;;;;;;;13.33;8.27;;;2.00;57.00;;;;;;5006540;28;20026;-68
2022/03/07 09:38:50;;;;;;;14.13;7.67;;;2.10;57.20;;;;;;4985808;28;20355;-68
2022/03/07 09:41:17;;;;;;;13.60;8.02;;;2.20;57.10;;;;;;4997191;28;20120;-68
2022/03/07 09:43:44;;;;;;;20.92;8.75;;;2.30;56.70;;;;;;5004125;28;20021;-69
2022/03/07 09:46:12;;;;;;;13.90;7.75;;;2.40;56.20;;;;;;5007310;28;20115;-69
2022/03/07 09:48:37;;;;;;;16.73;8.40;;;2.50;56.30;;;;;;5002171;28;20032;-69
2022/03/07 09:51:03;;;;;;;11.73;7.03;;;2.50;56.20;;;;;;5001976;28;20034;-69
2022/03/07 09:53:29;;;;;;;16.57;9.30;;;2.60;55.60;;;;;;5007074;28;20044;-70
2022/03/07 09:55:54;;;;;;;15.07;7.43;;;2.90;55.70;;;;;;5003177;28;20522;-69
2022/03/07 09:58:20;;;;;;;12.73;7.93;;;3.30;54.90;;;;;;4999410;28;20042;-69
2022/03/07 10:00:46;;;;;;;15.57;8.27;;;3.50;54.40;;;;;;5008577;28;20021;-70
2022/03/07 10:03:15;;;;;;;14.10;8.17;;;3.60;54.30;;;;;;4996620;28;20024;-69
2022/03/07 10:05:46;;;;;;;14.52;8.00;;;3.70;54.20;;;;;;5009356;28;20021;-69
2022/03/07 10:08:24;;;;;;;12.68;7.68;;;3.80;54.20;;;;;;4995447;28;20030;-70
2022/03/07 10:10:52;;;;;;;;;;;3.80;54.00;;;;;;5010465;28;20636;-70
2022/03/07 10:13:19;;;;;;;12.15;7.72;;;4.00;53.60;;;;;;4979522;28;19952;-69
2022/03/07 10:15:55;;;;;;;11.95;7.30;;;4.20;53.60;;;;;;4992719;28;20113;-69
2022/03/07 10:18:21;;;;;;;12.95;7.40;;;4.70;52.80;;;;;;4989194;28;20018;-69
2022/03/07 10:20:52;;;;;;;14.83;8.37;;;4.90;51.40;;;;;;5005119;28;20064;-69
2022/03/07 10:23:18;;;;;;;12.70;7.68;;;4.80;51.00;;;;;;5001920;28;20022;-69
2022/03/07 10:25:45;;;;;;;11.65;7.57;;;4.70;51.40;;;;;;5005668;28;20551;-69
2022/03/07 10:28:12;;;;;;;10.65;7.30;;;4.80;51.60;;;;;;5003089;28;20040;-69
2022/03/07 10:30:38;;;;;;;11.23;6.68;;;4.90;51.50;;;;;;4998751;28;20127;-69
2022/03/07 10:33:10;;;;;;;11.18;6.60;;;4.90;51.00;;;;;;4994134;28;20039;-68
2022/03/07 10:35:41;;;;;;;9.70;6.63;;;4.90;50.60;;;;;;5009370;28;20029;-70
2022/03/07 10:38:14;;;;;;;10.93;7.18;;;4.80;50.90;;;;;;4998983;28;20026;-70
2022/03/07 10:40:44;;;;;;;9.90;6.45;;;4.60;50.70;;;;;;4991219;28;20025;-69
2022/03/07 10:43:12;;;;;;;8.95;5.43;;;4.40;50.70;;;;;;4998660;28;20087;-69
2022/03/07 10:45:45;;;;;;;10.70;6.05;;;4.40;51.30;;;;;;5001798;28;20032;-68
2022/03/07 10:48:11;;;;;;;10.73;6.68;;;4.50;51.20;;;;;;4998338;28;20112;-69
2022/03/07 10:50:37;;;;;;;9.57;5.83;;;4.70;50.90;;;;;;5004147;28;20026;-70
2022/03/07 10:53:05;;;;;;;9.13;6.27;;;4.70;50.70;;;;;;4998382;28;20076;-71
2022/03/07 10:55:32;;;;;;;7.88;5.47;;;4.60;50.90;;;;;;5009227;28;20030;-69
2022/03/07 10:58:05;;;;;;;;;;;4.50;51.20;;;;;;4998945;28;20069;-69
2022/03/07 11:00:30;;;;;;;8.60;5.57;;;4.50;51.20;;;;;;4985125;28;20343;-69
2022/03/07 11:02:56;;;;;;;11.23;6.23;;;4.60;51.50;;;;;;5006084;28;20026;-69
2022/03/07 11:05:22;;;;;;;10.77;6.27;;;4.50;51.00;;;;;;4996200;28;20108;-69
2022/03/07 11:07:51;;;;;;;9.80;5.97;;;4.30;51.30;;;;;;5005378;28;20053;-69
2022/03/07 11:10:16;;;;;;;10.50;6.18;;;4.30;51.70;;;;;;5003762;28;20034;-69
2022/03/07 11:12:43;;;;;;;10.13;5.93;;;4.30;52.10;;;;;;5003827;28;20056;-69
2022/03/07 11:15:10;;;;;;;10.68;6.00;;;4.20;52.50;;;;;;5005243;28;20033;-69
2022/03/07 11:17:43;;;;;;;11.32;6.20;;;4.10;52.60;;;;;;4984138;28;20021;-69
2022/03/07 11:20:11;;;;;;;10.80;6.00;;;4.10;52.90;;;;;;5001637;28;20028;-69
2022/03/07 11:22:37;;;;;;;12.88;6.07;;;3.90;53.20;;;;;;5007861;28;20033;-69
2022/03/07 11:25:05;;;;;;;78.67;14.87;;;3.80;53.90;;;;;;5002972;28;20032;-70
2022/03/07 11:27:31;;;;;;;25.23;7.70;;;3.70;54.10;;;;;;4996699;28;20482;-69
2022/03/07 11:29:57;;;;;;;9.23;5.90;;;3.90;54.60;;;;;;5009541;28;20022;-69
2022/03/07 11:32:23;;;;;;;14.80;5.57;;;4.20;54.50;;;;;;4999734;28;20984;-69
2022/03/07 11:34:58;;;;;;;13.87;5.67;;;4.50;53.90;;;;;;5006992;28;20284;-69
2022/03/07 11:37:29;;;;;;;8.77;5.50;;;4.70;53.20;;;;;;4998556;28;20030;-72
2022/03/07 11:39:58;;;;;;;9.25;5.35;;;4.80;52.80;;;;;;5005889;28;20018;-69
2022/03/07 11:42:37;;;;;;;10.68;5.68;;;4.90;52.60;;;;;;5003205;28;20298;-69
2022/03/07 11:45:09;;;;;;;7.22;4.72;;;4.80;52.70;;;;;;5006448;28;20142;-70
2022/03/07 11:47:39;;;;;;;9.68;5.25;;;4.70;52.90;;;;;;5001505;28;20029;-70
2022/03/07 11:50:06;;;;;;;6.78;5.05;;;4.50;53.50;;;;;;5001001;28;20451;-69
2022/03/07 11:52:32;;;;;;;9.02;5.47;;;4.20;54.10;;;;;;5008020;28;20037;-71
2022/03/07 11:55:01;;;;;;;9.02;5.43;;;4.00;55.00;;;;;;5003700;28;20403;-71
2022/03/07 11:57:31;;;;;;;8.02;4.90;;;3.90;55.50;;;;;;5006127;28;20116;-69
2022/03/07 12:00:08;;;;;;;7.60;4.85;;;3.70;56.10;;;;;;5005930;28;20018;-69
2022/03/07 12:02:41;;;;;;;6.82;4.40;;;3.60;56.50;;;;;;5005488;28;20411;-69
2022/03/07 12:05:25;;;;;;;15.32;6.05;;;3.60;56.90;;;;;;4989278;28;20622;-69
2022/03/07 12:07:52;;;;;;;12.13;5.30;;;3.60;57.40;;;;;;5008021;28;20028;-69
2022/03/07 12:10:19;;;;;;;9.30;5.57;;;3.70;57.50;;;;;;5001027;28;20104;-69
2022/03/07 12:12:44;;;;;;;13.13;5.53;;;3.90;56.80;;;;;;5005431;28;20053;-70
2022/03/07 12:15:13;;;;;;;8.67;5.13;;;4.00;56.80;;;;;;4980674;28;20541;-70
2022/03/07 12:17:38;;;;;;;8.07;5.07;;;4.00;57.70;;;;;;4985948;28;20018;-69
2022/03/07 12:20:06;;;;;;;8.30;5.33;;;3.80;58.40;;;;;;4999690;28;20505;-70
2022/03/07 12:22:32;;;;;;;14.82;5.47;;;3.70;58.90;;;;;;5004097;28;20029;-69
2022/03/07 12:25:05;;;;;;;11.40;5.88;;;3.70;59.10;;;;;;5004745;28;20080;-69
2022/03/07 12:27:37;;;;;;;8.20;5.60;;;3.60;60.00;;;;;;5006388;28;20033;-69
2022/03/07 12:30:06;;;;;;;11.13;5.90;;;3.60;60.60;;;;;;5010061;28;20053;-72
2022/03/07 12:32:32;;;;;;;9.77;5.90;;;3.60;61.20;;;;;;5008807;28;20129;-68
2022/03/07 12:34:59;;;;;;;7.87;5.63;;;3.60;61.20;;;;;;5004543;28;20033;-69
2022/03/07 12:37:28;;;;;;;10.80;6.18;;;3.80;60.70;;;;;;5005180;28;20026;-69
2022/03/07 12:39:57;;;;;;;9.25;5.55;;;4.00;60.20;;;;;;5007813;28;20079;-69